CDT,Max TemperatureF,Mean TemperatureF,Min TemperatureF,Max Dew PointF,MeanDew PointF,Min DewpointF,Max Humidity, Mean Humidity, Min Humidity, Max Sea Level PressureIn, Mean Sea Level PressureIn, Min Sea Level PressureIn, Max VisibilityMiles, Mean VisibilityMiles, Min VisibilityMiles, Max Wind SpeedMPH, Mean Wind SpeedMPH, Max Gust SpeedMPH,PrecipitationIn, CloudCover, Events, WindDirDegrees
2011-10-1,80,62,43,38,34,28,60,38,21,30.22,30.15,30.07,10,10,10,24,14,30,0.00,0,,167
2011-10-2,87,69,51,41,38,36,59,39,18,30.09,30.05,29.99,10,10,10,23,12,29,0.00,0,,171
2011-10-3,87,69,51,42,40,38,63,41,18,30.09,30.04,29.99,10,10,10,25,14,33,0.00,0,,169
2011-10-4,90,73,56,47,44,42,61,41,21,30.02,29.94,29.85,10,10,10,21,14,26,0.00,0,,166
2011-10-5,87,73,59,45,43,38,57,38,19,29.92,29.88,29.81,10,10,10,32,16,39,0.00,0,,171
2011-10-6,77,70,62,55,46,38,50,41,32,29.83,29.73,29.62,10,10,10,39,26,53,T,1,,161
2011-10-7,83,73,62,63,51,32,88,57,18,29.84,29.73,29.64,10,9,1,31,14,41,0.95,4,Rain-Thunderstorm,212
2011-10-8,69,61,53,64,55,49,100,87,72,30.12,30.00,29.84,10,9,3,20,7,24,0.60,7,Rain-Thunderstorm,360
2011-10-9,74,65,56,62,59,55,100,88,68,30.13,30.05,29.95,10,8,2,20,8,25,0.57,8,Rain,138
2011-10-10,71,63,55,55,51,45,94,77,41,29.98,29.92,29.81,10,10,10,21,10,29,0.07,5,Rain,207
2011-10-11,77,64,50,56,52,47,93,70,46,29.82,29.74,29.68,10,10,10,18,10,24,0.00,0,,182
2011-10-12,72,61,49,54,48,41,93,64,35,29.82,29.74,29.68,10,10,6,23,9,32,0.00,3,,292
2011-10-13,69,57,44,41,36,26,83,53,22,29.86,29.83,29.77,10,10,10,29,13,38,0.00,0,,298
2011-10-14,60,51,42,37,35,27,82,56,30,30.03,29.96,29.87,10,10,10,32,14,40,0.00,1,,313
2011-10-15,67,53,38,40,35,30,85,56,26,30.03,29.94,29.81,10,10,10,15,7,20,T,2,,208
2011-10-16,59,47,35,40,33,26,87,60,31,30.10,30.04,29.92,10,10,10,23,10,35,T,1,,311
2011-10-17,57,47,36,34,28,23,73,51,27,30.09,30.06,30.03,10,10,10,21,9,33,0.00,1,,300
2011-10-18,54,43,32,30,27,24,85,57,31,30.24,30.17,30.07,10,10,10,24,12,31,0.00,1,,344
2011-10-19,42,33,24,29,26,22,88,71,47,30.28,30.22,30.17,10,10,10,18,7,24,0.00,4,,348
2011-10-20,51,38,24,31,27,22,92,67,42,30.16,30.11,30.04,10,10,10,8,4,,0.00,0,,283
2011-10-21,71,51,31,43,35,27,85,59,33,30.12,30.05,30.02,10,10,9,14,6,18,T,1,,299
2011-10-22,63,49,35,46,42,35,100,76,52,30.16,30.09,29.94,10,6,0,15,7,18,T,3,Fog,192
2011-10-23,71,58,44,45,40,35,80,54,28,29.99,29.92,29.87,10,10,10,23,9,30,0.00,1,,282
2011-10-24,68,52,36,39,35,31,85,55,24,30.08,29.97,29.81,10,10,10,13,6,17,0.00,0,,90
2011-10-25,61,52,42,40,38,35,89,65,40,30.12,29.94,29.76,10,10,9,26,12,33,0.00,2,,11
2011-10-26,50,42,34,39,33,27,83,67,50,30.25,30.17,30.13,10,10,10,18,11,25,0.00,5,,329
2011-10-27,55,41,27,31,25,22,92,61,29,30.15,30.11,30.06,10,10,10,13,6,17,0.00,1,,237
2011-10-28,58,44,30,31,22,14,82,51,20,30.22,30.17,30.09,10,10,10,24,10,30,0.00,0,,293
2011-10-29,61,44,26,32,27,20,78,49,30,30.10,29.90,29.78,10,10,10,21,9,28,0.00,2,,194
2011-10-30,54,43,31,36,28,23,76,54,32,30.08,30.00,29.88,10,10,10,26,13,35,0.00,0,,310
2011-10-31,68,47,25,31,26,20,81,53,24,30.08,29.93,29.80,10,10,10,17,9,22,0.00,0,,171